createdAt,value
2022-11-29T00:01:39.064Z,52
2022-11-29T00:04:09.709Z,56
2022-11-29T00:06:40.634Z,50
2022-11-29T00:09:12.354Z,53
2022-11-29T00:11:43.396Z,51
2022-11-29T00:14:14.162Z,47
2022-11-29T00:16:43.476Z,59
2022-11-29T00:19:15.107Z,61
2022-11-29T00:21:45.629Z,52
2022-11-29T00:24:16.672Z,68
2022-11-29T00:26:47.239Z,65
2022-11-29T00:29:17.862Z,51
2022-11-29T00:31:48.723Z,59
2022-11-29T00:34:20.104Z,64
2022-11-29T00:36:50.536Z,64
2022-11-29T00:39:21.604Z,59
2022-11-29T00:41:52.593Z,57
2022-11-29T00:44:23.421Z,60
2022-11-29T00:46:54.441Z,56
2022-11-29T00:49:24.700Z,56
2022-11-29T00:51:56.924Z,46
2022-11-29T00:54:28.213Z,48
2022-11-29T00:56:58.885Z,52
2022-11-29T00:59:29.518Z,52
2022-11-29T01:01:59.784Z,52
2022-11-29T01:04:31.104Z,45
2022-11-29T01:07:01.991Z,47
2022-11-29T01:09:32.843Z,51
2022-11-29T01:12:03.462Z,49
2022-11-29T01:14:33.884Z,49
2022-11-29T01:17:05.275Z,52
2022-11-29T01:19:36.641Z,44
2022-11-29T01:22:07.480Z,52
2022-11-29T01:24:38.101Z,48
2022-11-29T01:27:09.167Z,48
2022-11-29T01:29:39.733Z,52
2022-11-29T01:32:10.390Z,49
2022-11-29T01:34:41.403Z,51
2022-11-29T01:37:12.342Z,46
2022-11-29T01:39:43.253Z,49
2022-11-29T01:42:14.302Z,47
2022-11-29T01:44:45.469Z,48
2022-11-29T01:47:16.145Z,48
2022-11-29T01:49:46.789Z,48
2022-11-29T01:52:18.416Z,46
2022-11-29T01:54:49.506Z,53
2022-11-29T01:57:20.382Z,44
2022-11-29T01:59:51.309Z,44
2022-11-29T02:02:22.722Z,46
2022-11-29T02:04:53.881Z,45
2022-11-29T02:07:25.352Z,47
2022-11-29T02:09:56.369Z,48
2022-11-29T02:12:26.993Z,48
2022-11-29T02:14:58.010Z,48
2022-11-29T02:17:28.962Z,44
2022-11-29T02:20:00.227Z,45
2022-11-29T02:22:30.756Z,44
2022-11-29T02:25:01.239Z,48
2022-11-29T02:27:32.333Z,43
2022-11-29T02:30:03.835Z,44
2022-11-29T02:32:35.003Z,50
2022-11-29T02:35:05.979Z,47
2022-11-29T02:37:36.783Z,52
2022-11-29T02:40:07.198Z,47
2022-11-29T02:42:38.080Z,44
2022-11-29T02:45:09.328Z,44
2022-11-29T02:47:39.903Z,44
2022-11-29T02:50:10.750Z,50
2022-11-29T02:52:41.553Z,65
2022-11-29T02:55:13.280Z,60
2022-11-29T02:57:44.439Z,56
2022-11-29T03:00:15.419Z,52
2022-11-29T03:02:46.668Z,52
2022-11-29T03:05:17.817Z,61
2022-11-29T03:07:48.449Z,56
2022-11-29T03:10:19.228Z,52
2022-11-29T03:12:49.893Z,57
2022-11-29T03:15:21.145Z,49
2022-11-29T03:17:52.146Z,52
2022-11-29T03:20:23.046Z,62
2022-11-29T03:22:54.296Z,71
2022-11-29T03:25:25.794Z,60
2022-11-29T03:27:57.047Z,52
2022-11-29T03:30:28.393Z,49
2022-11-29T03:32:58.890Z,58
2022-11-29T03:35:30.064Z,57
2022-11-29T03:38:00.567Z,60
2022-11-29T03:40:31.413Z,52
2022-11-29T03:43:02.398Z,58
2022-11-29T03:45:33.829Z,53
2022-11-29T03:48:04.551Z,57
2022-11-29T03:50:35.296Z,52
2022-11-29T03:53:06.585Z,50
2022-11-29T03:55:38.245Z,56
2022-11-29T03:58:09.454Z,64
2022-11-29T04:00:43.824Z,52
2022-11-29T04:03:14.744Z,48
2022-11-29T04:05:45.580Z,52
2022-11-29T04:08:16.953Z,49
2022-11-29T04:10:48.332Z,49
2022-11-29T04:13:19.303Z,48
2022-11-29T04:15:50.163Z,52
2022-11-29T04:18:20.446Z,52
2022-11-29T04:20:51.321Z,57
2022-11-29T04:23:23.481Z,54
2022-11-29T04:25:54.498Z,58
2022-11-29T04:28:25.006Z,75
2022-11-29T04:30:56.633Z,69
2022-11-29T04:33:27.920Z,73
2022-11-29T04:35:58.641Z,68
2022-11-29T04:38:29.740Z,59
2022-11-29T04:41:00.734Z,64
2022-11-29T04:43:32.094Z,60
2022-11-29T04:46:02.674Z,60
2022-11-29T04:48:34.337Z,62
2022-11-29T04:51:05.262Z,57
2022-11-29T04:53:36.209Z,56
2022-11-29T04:56:07.140Z,56
2022-11-29T04:58:38.260Z,52
2022-11-29T05:01:09.025Z,56
2022-11-29T05:03:39.824Z,61
2022-11-29T05:06:10.902Z,58
2022-11-29T05:08:41.839Z,60
2022-11-29T05:11:13.095Z,56
2022-11-29T05:13:44.222Z,56
2022-11-29T05:16:15.689Z,56
2022-11-29T05:18:46.599Z,58
2022-11-29T05:21:17.250Z,52
2022-11-29T05:23:48.377Z,49
2022-11-29T05:26:19.270Z,52
2022-11-29T05:28:50.051Z,56
2022-11-29T05:31:21.523Z,52
2022-11-29T05:33:52.525Z,52
2022-11-29T05:36:23.676Z,52
2022-11-29T05:38:54.605Z,48
2022-11-29T05:41:25.876Z,56
2022-11-29T05:43:57.159Z,52
2022-11-29T05:46:27.949Z,48
2022-11-29T05:48:59.020Z,52
2022-11-29T05:51:30.499Z,50
2022-11-29T05:54:01.978Z,54
2022-11-29T05:56:32.851Z,60
2022-11-29T05:59:04.173Z,56
2022-11-29T06:01:34.985Z,46
2022-11-29T06:04:07.935Z,56
2022-11-29T06:06:38.260Z,51
2022-11-29T06:09:09.438Z,52
2022-11-29T06:11:39.767Z,53
2022-11-29T06:14:10.765Z,48
2022-11-29T06:16:41.369Z,57
2022-11-29T06:19:12.132Z,52
2022-11-29T06:21:43.624Z,52
2022-11-29T06:24:14.643Z,51
2022-11-29T06:26:45.943Z,49
2022-11-29T06:29:17.272Z,48
2022-11-29T06:31:48.555Z,49
2022-11-29T06:34:19.521Z,52
2022-11-29T06:36:51.323Z,68
2022-11-29T06:39:21.839Z,61
2022-11-29T06:41:52.929Z,58
2022-11-29T06:44:23.891Z,64
2022-11-29T06:46:54.475Z,57
2022-11-29T06:49:25.431Z,52
2022-11-29T06:51:56.934Z,55
2022-11-29T06:54:28.294Z,48
2022-11-29T06:56:58.856Z,50
2022-11-29T06:59:29.974Z,50
2022-11-29T07:02:01.095Z,52
2022-11-29T07:04:31.945Z,60
2022-11-29T07:07:02.749Z,48
2022-11-29T07:09:33.689Z,52
2022-11-29T07:12:04.403Z,48
2022-11-29T07:14:35.691Z,45
2022-11-29T07:17:06.558Z,41
2022-11-29T07:19:37.589Z,50
2022-11-29T07:22:08.418Z,62
2022-11-29T07:24:39.141Z,55
2022-11-29T07:27:10.000Z,60
2022-11-29T07:29:40.589Z,60
2022-11-29T07:32:11.123Z,49
2022-11-29T07:34:41.490Z,44
2022-11-29T07:37:12.221Z,48
2022-11-29T07:39:43.470Z,52
2022-11-29T07:42:14.065Z,52
2022-11-29T07:44:45.139Z,48
2022-11-29T07:47:15.391Z,43
2022-11-29T07:49:45.829Z,48
2022-11-29T07:52:16.410Z,53
2022-11-29T07:54:47.337Z,46
2022-11-29T07:57:18.006Z,43
2022-11-29T07:59:48.790Z,38
2022-11-29T08:02:19.785Z,44
2022-11-29T08:04:50.130Z,44
2022-11-29T08:07:21.049Z,56
2022-11-29T08:09:52.010Z,50
2022-11-29T08:12:23.010Z,48
2022-11-29T08:14:53.427Z,49
2022-11-29T08:17:23.868Z,48
2022-11-29T08:19:54.431Z,45
2022-11-29T08:22:24.581Z,43
2022-11-29T08:24:55.367Z,41
2022-11-29T08:27:26.246Z,40
2022-11-29T08:29:56.806Z,45
2022-11-29T08:32:27.970Z,48
2022-11-29T08:34:58.820Z,51
2022-11-29T08:37:29.409Z,46
2022-11-29T08:40:00.159Z,41
2022-11-29T08:42:30.762Z,42
2022-11-29T08:45:01.022Z,41
2022-11-29T08:47:31.801Z,47
2022-11-29T08:50:02.318Z,40
2022-11-29T08:52:33.070Z,50
2022-11-29T08:55:04.165Z,40
2022-11-29T08:57:41.900Z,36
2022-11-29T09:00:05.875Z,35
2022-11-29T09:02:36.588Z,39
2022-11-29T09:05:07.382Z,32
2022-11-29T09:07:38.268Z,36
2022-11-29T09:10:08.548Z,36
2022-11-29T09:12:38.992Z,29
2022-11-29T09:15:09.384Z,34
2022-11-29T09:17:39.887Z,39
2022-11-29T09:20:09.974Z,33
2022-11-29T09:22:40.772Z,35
2022-11-29T09:25:11.061Z,36
2022-11-29T09:27:41.930Z,35
2022-11-29T09:30:12.276Z,35
2022-11-29T09:32:42.847Z,41
2022-11-29T09:35:13.624Z,39
2022-11-29T09:37:44.143Z,42
2022-11-29T09:40:15.154Z,37
2022-11-29T09:42:46.307Z,42
2022-11-29T09:45:16.985Z,44
2022-11-29T09:47:47.331Z,36
2022-11-29T09:50:18.131Z,45
2022-11-29T09:52:48.415Z,36
2022-11-29T09:55:18.803Z,39
2022-11-29T09:57:49.571Z,36
2022-11-29T10:00:20.693Z,34
2022-11-29T10:02:50.901Z,50
2022-11-29T10:05:21.795Z,40
2022-11-29T10:07:52.388Z,48
2022-11-29T10:10:22.808Z,24
2022-11-29T10:12:53.490Z,37
2022-11-29T10:15:23.903Z,34
2022-11-29T10:17:54.892Z,31
2022-11-29T10:20:25.711Z,21
2022-11-29T10:22:56.296Z,31
2022-11-29T10:25:27.070Z,30
2022-11-29T10:27:58.265Z,25
2022-11-29T10:30:34.654Z,25
2022-11-29T10:33:05.439Z,32
2022-11-29T10:35:35.909Z,36
2022-11-29T10:38:29.485Z,32
2022-11-29T10:40:37.304Z,36
2022-11-29T10:43:08.298Z,47
2022-11-29T10:45:39.162Z,38
2022-11-29T10:48:10.097Z,29
2022-11-29T10:50:40.370Z,40
2022-11-29T10:53:11.230Z,44
2022-11-29T10:55:42.200Z,44
2022-11-29T10:58:13.520Z,32
2022-11-29T11:00:44.601Z,44
2022-11-29T11:03:14.921Z,40
2022-11-29T11:05:45.871Z,24
2022-11-29T11:08:16.188Z,33
2022-11-29T11:10:51.077Z,36
2022-11-29T11:13:17.335Z,42
2022-11-29T11:15:47.674Z,40
2022-11-29T11:18:18.607Z,40
2022-11-29T11:20:49.005Z,44
2022-11-29T11:23:19.709Z,40
2022-11-29T11:25:50.061Z,50
2022-11-29T11:28:20.756Z,44
2022-11-29T11:30:51.268Z,52
2022-11-29T11:33:21.891Z,43
2022-11-29T11:35:52.721Z,41
2022-11-29T11:38:23.415Z,48
2022-11-29T11:40:57.951Z,36
2022-11-29T11:43:24.721Z,47
2022-11-29T11:45:59.283Z,44
2022-11-29T11:48:30.223Z,44
2022-11-29T11:51:03.493Z,40
2022-11-29T11:53:32.261Z,37
2022-11-29T11:56:02.630Z,40
2022-11-29T11:58:33.261Z,40
2022-11-29T12:01:05.183Z,43
2022-11-29T12:03:34.978Z,36
2022-11-29T12:06:05.584Z,38
2022-11-29T12:08:36.768Z,36
2022-11-29T12:11:07.768Z,45
2022-11-29T12:13:38.064Z,42
2022-11-29T12:16:09.763Z,52
2022-11-29T12:18:40.751Z,49
2022-11-29T12:21:11.246Z,44
2022-11-29T12:23:41.954Z,55
2022-11-29T12:26:16.235Z,44
2022-11-29T12:28:43.659Z,33
2022-11-29T12:31:14.617Z,40
2022-11-29T12:33:45.263Z,40
2022-11-29T12:36:15.885Z,40
2022-11-29T12:38:46.381Z,36
2022-11-29T12:41:16.661Z,56
2022-11-29T12:43:47.642Z,53
2022-11-29T12:46:18.220Z,68
2022-11-29T12:48:48.828Z,56
2022-11-29T12:51:19.734Z,40
2022-11-29T12:53:50.219Z,40
2022-11-29T12:56:20.916Z,36
2022-11-29T12:58:52.079Z,36
2022-11-29T13:01:23.183Z,41
2022-11-29T13:03:53.888Z,39
2022-11-29T13:06:24.844Z,32
2022-11-29T13:08:55.165Z,40
2022-11-29T13:11:25.931Z,34
2022-11-29T13:14:08.189Z,48
2022-11-29T13:16:31.224Z,119
2022-11-29T13:18:59.147Z,59
2022-11-29T13:21:29.682Z,59
2022-11-29T13:24:08.173Z,47
2022-11-29T13:26:31.079Z,64
2022-11-29T13:29:03.306Z,52
2022-11-29T13:31:34.043Z,48
2022-11-29T13:34:04.724Z,35
2022-11-29T13:36:36.356Z,44
2022-11-29T13:39:07.380Z,70
2022-11-29T13:41:38.852Z,58
2022-11-29T13:44:09.715Z,68
2022-11-29T13:46:40.809Z,40
2022-11-29T13:49:11.804Z,55
2022-11-29T13:51:43.519Z,38
2022-11-29T13:54:14.728Z,41
2022-11-29T13:56:46.648Z,45
2022-11-29T13:59:17.546Z,32
2022-11-29T14:01:49.054Z,36
2022-11-29T14:04:19.843Z,36
2022-11-29T14:06:51.067Z,41
2022-11-29T14:09:22.041Z,32
2022-11-29T14:11:53.198Z,31
2022-11-29T14:14:24.017Z,40
2022-11-29T14:16:54.698Z,52
2022-11-29T14:19:26.697Z,43
2022-11-29T14:21:56.591Z,37
2022-11-29T14:24:28.216Z,41
2022-11-29T14:26:59.594Z,42
2022-11-29T14:29:30.556Z,43
2022-11-29T14:32:02.388Z,45
2022-11-29T14:34:33.882Z,41
2022-11-29T14:37:05.071Z,44
2022-11-29T14:39:36.041Z,53
2022-11-29T14:42:07.297Z,40
2022-11-29T14:44:38.289Z,39
2022-11-29T14:47:09.397Z,40
2022-11-29T14:49:40.606Z,41
2022-11-29T14:52:12.043Z,37
2022-11-29T14:54:45.959Z,45
2022-11-29T14:57:15.120Z,46
2022-11-29T14:59:46.345Z,49
2022-11-29T15:02:17.600Z,47
2022-11-29T15:04:48.805Z,41
2022-11-29T15:07:20.476Z,44
2022-11-29T15:09:51.561Z,45
2022-11-29T15:12:22.760Z,48
2022-11-29T15:14:54.267Z,51
2022-11-29T15:17:25.433Z,48
2022-11-29T15:19:57.523Z,47
2022-11-29T15:22:28.916Z,49
2022-11-29T15:24:59.988Z,52
2022-11-29T15:27:31.137Z,48
2022-11-29T15:30:03.788Z,52
2022-11-29T15:32:35.889Z,49
2022-11-29T15:35:07.360Z,48
2022-11-29T15:37:41.693Z,52
2022-11-29T15:40:12.342Z,47
2022-11-29T15:42:43.729Z,71
2022-11-29T15:45:15.034Z,52
2022-11-29T15:47:46.259Z,66
2022-11-29T15:50:17.561Z,53
2022-11-29T15:52:50.769Z,52
2022-11-29T15:55:21.857Z,48
2022-11-29T15:57:52.831Z,57
2022-11-29T16:00:23.620Z,60
2022-11-29T16:02:55.184Z,60
2022-11-29T16:05:25.848Z,60
2022-11-29T16:07:56.969Z,42
2022-11-29T16:10:33.550Z,46
2022-11-29T16:12:59.946Z,44
2022-11-29T16:15:31.156Z,48
2022-11-29T16:18:02.226Z,49
2022-11-29T16:20:33.716Z,49
2022-11-29T16:23:04.780Z,52
2022-11-29T16:25:37.698Z,43
2022-11-29T16:28:12.168Z,44
2022-11-29T16:30:44.614Z,44
2022-11-29T16:33:16.115Z,50
2022-11-29T16:35:47.043Z,44
2022-11-29T16:38:18.189Z,54
2022-11-29T16:40:48.985Z,49
2022-11-29T16:43:20.144Z,47
2022-11-29T16:45:51.564Z,50
2022-11-29T16:48:23.191Z,41
2022-11-29T16:50:54.004Z,45
2022-11-29T16:53:25.094Z,44
2022-11-29T16:55:56.385Z,52
2022-11-29T16:58:27.995Z,60
2022-11-29T17:00:59.563Z,57
2022-11-29T17:03:31.028Z,49
2022-11-29T17:06:02.290Z,62
2022-11-29T17:08:34.144Z,39
2022-11-29T17:11:06.011Z,40
2022-11-29T17:13:37.940Z,44
2022-11-29T17:16:09.522Z,52
2022-11-29T17:18:41.543Z,40
2022-11-29T17:21:15.498Z,55
2022-11-29T17:23:46.524Z,40
2022-11-29T17:26:18.671Z,36
2022-11-29T17:28:49.911Z,56
2022-11-29T17:31:21.281Z,39
2022-11-29T17:33:52.112Z,43
2022-11-29T17:36:23.587Z,56
2022-11-29T17:38:54.934Z,55
2022-11-29T17:41:25.885Z,46
2022-11-29T17:43:57.224Z,42
2022-11-29T17:46:30.016Z,48
2022-11-29T17:49:01.828Z,40
2022-11-29T17:54:04.068Z,41
2022-11-29T17:56:35.385Z,32
2022-11-29T17:59:06.992Z,41
2022-11-29T18:01:38.588Z,44
2022-11-29T18:04:10.015Z,38
2022-11-29T18:06:41.205Z,29
2022-11-29T18:09:13.112Z,48
2022-11-29T18:11:47.948Z,44
2022-11-29T18:14:15.821Z,49
2022-11-29T18:16:46.622Z,36
2022-11-29T18:19:17.819Z,44
2022-11-29T18:21:48.844Z,37
2022-11-29T18:24:19.891Z,33
2022-11-29T18:26:51.034Z,36
2022-11-29T18:29:22.442Z,33
2022-11-29T18:31:53.624Z,42
2022-11-29T18:34:24.704Z,49
2022-11-29T18:36:56.891Z,36
2022-11-29T18:39:28.722Z,39
2022-11-29T18:42:00.043Z,31
2022-11-29T18:44:31.353Z,37
2022-11-29T18:47:02.500Z,42
2022-11-29T18:49:33.718Z,32
2022-11-29T18:52:04.476Z,40
2022-11-29T18:54:36.129Z,49
2022-11-29T18:57:07.426Z,80
2022-11-29T18:59:38.775Z,48
2022-11-29T19:02:09.711Z,45
2022-11-29T19:04:41.402Z,51
2022-11-29T19:07:13.082Z,64
2022-11-29T19:09:45.560Z,67
2022-11-29T19:12:16.886Z,48
2022-11-29T19:14:49.916Z,60
2022-11-29T19:17:19.316Z,81
2022-11-29T19:19:50.726Z,50
2022-11-29T19:22:21.504Z,56
2022-11-29T19:24:52.636Z,52
2022-11-29T19:27:23.704Z,45
2022-11-29T19:29:55.611Z,41
2022-11-29T19:32:28.875Z,38
2022-11-29T19:35:00.264Z,36
2022-11-29T19:37:32.676Z,40
2022-11-29T19:40:05.004Z,40
2022-11-29T19:42:38.180Z,32
2022-11-29T19:45:16.743Z,27
2022-11-29T19:47:40.390Z,35
2022-11-29T19:50:11.376Z,40
2022-11-29T19:52:42.878Z,36
2022-11-29T19:55:14.112Z,46
2022-11-29T19:57:45.599Z,45
2022-11-29T20:00:16.823Z,40
2022-11-29T20:02:48.560Z,42
2022-11-29T20:05:20.064Z,39
2022-11-29T20:07:51.622Z,71
2022-11-29T20:10:23.184Z,58
2022-11-29T20:12:54.106Z,52
2022-11-29T20:15:25.420Z,47
2022-11-29T20:17:56.791Z,49
2022-11-29T20:20:30.995Z,57
2022-11-29T20:23:02.626Z,53
2022-11-29T20:25:33.788Z,57
2022-11-29T20:28:06.083Z,44
2022-11-29T20:30:37.629Z,43
2022-11-29T20:33:08.654Z,44
2022-11-29T20:35:39.605Z,38
2022-11-29T20:38:11.744Z,40
2022-11-29T20:40:43.651Z,40
2022-11-29T20:43:16.352Z,36
2022-11-29T20:45:48.139Z,40
2022-11-29T20:48:19.387Z,40
2022-11-29T20:50:50.791Z,40
2022-11-29T20:53:21.935Z,41
2022-11-29T20:55:53.979Z,44
2022-11-29T20:58:25.212Z,46
2022-11-29T21:00:56.574Z,49
2022-11-29T21:03:30.394Z,35
2022-11-29T21:06:01.637Z,50
2022-11-29T21:08:32.870Z,49
2022-11-29T21:11:04.148Z,37
2022-11-29T21:13:36.253Z,36
2022-11-29T21:16:09.015Z,50
2022-11-29T21:18:40.335Z,56
2022-11-29T21:21:11.271Z,35
2022-11-29T21:23:42.288Z,35
2022-11-29T21:26:16.489Z,40
2022-11-29T21:28:48.997Z,31
2022-11-29T21:31:20.107Z,48
2022-11-29T21:33:51.127Z,37
2022-11-29T21:36:22.211Z,48
2022-11-29T21:38:55.172Z,40
2022-11-29T21:41:25.101Z,32
2022-11-29T21:44:12.032Z,42
2022-11-29T21:46:28.571Z,36
2022-11-29T21:49:00.057Z,31
2022-11-29T21:51:31.508Z,41
2022-11-29T21:54:02.247Z,37
2022-11-29T21:56:34.431Z,28
2022-11-29T21:59:05.948Z,44
2022-11-29T22:01:37.572Z,40
2022-11-29T22:04:08.469Z,48
2022-11-29T22:06:39.908Z,38
2022-11-29T22:09:10.841Z,40
2022-11-29T22:11:42.119Z,40
2022-11-29T22:14:13.451Z,36
2022-11-29T22:16:44.656Z,32
2022-11-29T22:19:15.883Z,35
2022-11-29T22:21:46.862Z,36
2022-11-29T22:24:18.563Z,33
2022-11-29T22:26:49.858Z,33
2022-11-29T22:29:21.137Z,39
2022-11-29T22:31:52.127Z,32
2022-11-29T22:34:22.828Z,26
2022-11-29T22:36:54.934Z,30
2022-11-29T22:39:26.686Z,23
2022-11-29T22:41:58.188Z,28
2022-11-29T22:44:29.563Z,28
2022-11-29T22:47:00.800Z,27
2022-11-29T22:49:32.554Z,20
2022-11-29T22:52:03.729Z,22
2022-11-29T22:54:35.074Z,20
2022-11-29T22:57:06.078Z,20
2022-11-29T22:59:37.357Z,18
2022-11-29T23:02:09.222Z,20
2022-11-29T23:04:40.328Z,17
2022-11-29T23:07:10.950Z,19
2022-11-29T23:09:42.115Z,16
2022-11-29T23:12:14.558Z,19
2022-11-29T23:14:48.264Z,32
2022-11-29T23:17:17.120Z,16
2022-11-29T23:19:47.694Z,16
2022-11-29T23:22:18.272Z,16
2022-11-29T23:24:49.318Z,20
2022-11-29T23:27:19.306Z,54
2022-11-29T23:29:49.252Z,20
2022-11-29T23:32:20.121Z,16
2022-11-29T23:34:51.383Z,29
2022-11-29T23:37:21.726Z,21
2022-11-29T23:39:52.300Z,16
2022-11-29T23:42:22.587Z,12
2022-11-29T23:44:53.836Z,16
2022-11-29T23:47:24.605Z,15
2022-11-29T23:49:55.123Z,12
2022-11-29T23:52:25.664Z,12
2022-11-29T23:54:56.208Z,12
2022-11-29T23:57:27.104Z,12
2022-11-29T23:59:57.414Z,16
